sensor_id;sensor_type;location;lat;lon;timestamp;pressure;altitude;pressure_sealevel;temperature;humidity
39265;BME280;42646;51.910;7.724;2022-10-18T00:00:23;101942.84;;;16.06;100.00
39265;BME280;42646;51.910;7.724;2022-10-18T00:02:51;101948.09;;;16.07;100.00
39265;BME280;42646;51.910;7.724;2022-10-18T00:05:18;101948.09;;;16.07;100.00
39265;BME280;42646;51.910;7.724;2022-10-18T00:07:46;101939.31;;;16.05;100.00
39265;BME280;42646;51.910;7.724;2022-10-18T00:10:14;101934.09;;;16.03;100.00
39265;BME280;42646;51.910;7.724;2022-10-18T00:12:41;101933.41;;;16.01;100.00
39265;BME280;42646;51.910;7.724;2022-10-18T00:15:10;101939.75;;;16.00;100.00
39265;BME280;42646;51.910;7.724;2022-10-18T00:17:39;101942.56;;;15.99;100.00
39265;BME280;42646;51.910;7.724;2022-10-18T00:20:08;101953.47;;;15.97;100.00
39265;BME280;42646;51.910;7.724;2022-10-18T00:22:37;101945.56;;;15.96;100.00
39265;BME280;42646;51.910;7.724;2022-10-18T00:25:06;101939.34;;;15.95;100.00
39265;BME280;42646;51.910;7.724;2022-10-18T00:27:34;101937.50;;;15.96;100.00
39265;BME280;42646;51.910;7.724;2022-10-18T00:30:03;101939.34;;;15.95;100.00
39265;BME280;42646;51.910;7.724;2022-10-18T00:32:34;101942.88;;;15.96;100.00
39265;BME280;42646;51.910;7.724;2022-10-18T00:35:05;101942.88;;;15.96;100.00
39265;BME280;42646;51.910;7.724;2022-10-18T00:37:33;101946.53;;;15.95;100.00
39265;BME280;42646;51.910;7.724;2022-10-18T00:40:01;101939.34;;;15.95;100.00
39265;BME280;42646;51.910;7.724;2022-10-18T00:42:32;101940.31;;;15.94;100.00
39265;BME280;42646;51.910;7.724;2022-10-18T00:45:16;101944.72;;;15.95;100.00
39265;BME280;42646;51.910;7.724;2022-10-18T00:47:48;101943.00;;;15.94;100.00
39265;BME280;42646;51.910;7.724;2022-10-18T00:50:19;101940.31;;;15.94;100.00
39265;BME280;42646;51.910;7.724;2022-10-18T00:52:50;101930.56;;;15.93;100.00
39265;BME280;42646;51.910;7.724;2022-10-18T00:55:19;101936.78;;;15.94;100.00
39265;BME280;42646;51.910;7.724;2022-10-18T00:57:47;101933.25;;;15.93;100.00
39265;BME280;42646;51.910;7.724;2022-10-18T01:00:16;101930.56;;;15.93;100.00
39265;BME280;42646;51.910;7.724;2022-10-18T01:02:45;101931.41;;;15.94;100.00
39265;BME280;42646;51.910;7.724;2022-10-18T01:05:15;101930.56;;;15.93;100.00
39265;BME280;42646;51.910;7.724;2022-10-18T01:07:57;101935.09;;;15.93;100.00
39265;BME280;42646;51.910;7.724;2022-10-18T01:10:32;101928.19;;;15.90;100.00
39265;BME280;42646;51.910;7.724;2022-10-18T01:13:12;101930.03;;;15.90;100.00
39265;BME280;42646;51.910;7.724;2022-10-18T01:15:54;101924.78;;;15.88;100.00
39265;BME280;42646;51.910;7.724;2022-10-18T01:18:27;101916.88;;;15.87;100.00
39265;BME280;42646;51.910;7.724;2022-10-18T01:21:06;101908.13;;;15.85;100.00
39265;BME280;42646;51.910;7.724;2022-10-18T01:23:58;101920.69;;;15.84;100.00
39265;BME280;42646;51.910;7.724;2022-10-18T01:26:39;101913.66;;;15.83;100.00
39265;BME280;42646;51.910;7.724;2022-10-18T01:29:16;101906.56;;;15.82;100.00
39265;BME280;42646;51.910;7.724;2022-10-18T01:31:55;101912.91;;;15.81;100.00
39265;BME280;42646;51.910;7.724;2022-10-18T01:34:26;101910.38;;;15.80;100.00
39265;BME280;42646;51.910;7.724;2022-10-18T01:36:56;101906.00;;;15.79;100.00
39265;BME280;42646;51.910;7.724;2022-10-18T01:39:27;101898.97;;;15.78;100.00
39265;BME280;42646;51.910;7.724;2022-10-18T01:41:58;101904.59;;;15.74;100.00
39265;BME280;42646;51.910;7.724;2022-10-18T01:44:30;101899.22;;;15.74;100.00
39265;BME280;42646;51.910;7.724;2022-10-18T01:47:00;101901.22;;;15.72;100.00
39265;BME280;42646;51.910;7.724;2022-10-18T01:49:27;101902.31;;;15.70;100.00
39265;BME280;42646;51.910;7.724;2022-10-18T01:51:55;101907.00;;;15.68;100.00
39265;BME280;42646;51.910;7.724;2022-10-18T01:54:27;101898.25;;;15.66;100.00
39265;BME280;42646;51.910;7.724;2022-10-18T01:56:59;101905.44;;;15.65;100.00
39265;BME280;42646;51.910;7.724;2022-10-18T01:59:36;101910.09;;;15.63;100.00
39265;BME280;42646;51.910;7.724;2022-10-18T02:02:16;101918.13;;;15.63;100.00
39265;BME280;42646;51.910;7.724;2022-10-18T02:04:50;101908.41;;;15.62;100.00
39265;BME280;42646;51.910;7.724;2022-10-18T02:07:31;101908.53;;;15.61;100.00
39265;BME280;42646;51.910;7.724;2022-10-18T02:10:06;101898.91;;;15.58;100.00
39265;BME280;42646;51.910;7.724;2022-10-18T02:12:36;101903.41;;;15.58;100.00
39265;BME280;42646;51.910;7.724;2022-10-18T02:15:08;101899.75;;;15.59;100.00
39265;BME280;42646;51.910;7.724;2022-10-18T02:17:39;101894.53;;;15.57;100.00
39265;BME280;42646;51.910;7.724;2022-10-18T02:23:49;101893.69;;;15.57;100.00
39265;BME280;42646;51.910;7.724;2022-10-18T02:26:17;101895.66;;;15.55;100.00
39265;BME280;42646;51.910;7.724;2022-10-18T02:28:45;101895.78;;;15.53;100.00
39265;BME280;42646;51.910;7.724;2022-10-18T02:31:16;101894.94;;;15.53;100.00
39265;BME280;42646;51.910;7.724;2022-10-18T02:33:50;101894.94;;;15.53;100.00
39265;BME280;42646;51.910;7.724;2022-10-18T02:36:23;101895.09;;;15.51;100.00
39265;BME280;42646;51.910;7.724;2022-10-18T02:38:55;101894.25;;;15.50;100.00
39265;BME280;42646;51.910;7.724;2022-10-18T02:41:23;101901.44;;;15.50;100.00
39265;BME280;42646;51.910;7.724;2022-10-18T02:43:53;101897.06;;;15.49;100.00
39265;BME280;42646;51.910;7.724;2022-10-18T02:46:20;101896.22;;;15.48;100.00
39265;BME280;42646;51.910;7.724;2022-10-18T02:48:50;101897.34;;;15.46;100.00
39265;BME280;42646;51.910;7.724;2022-10-18T02:51:17;101899.19;;;15.45;100.00
39265;BME280;42646;51.910;7.724;2022-10-18T02:53:45;101901.84;;;15.45;100.00
39265;BME280;42646;51.910;7.724;2022-10-18T02:56:13;101900.16;;;15.44;100.00
39265;BME280;42646;51.910;7.724;2022-10-18T02:58:40;101895.94;;;15.42;100.00
39265;BME280;42646;51.910;7.724;2022-10-18T03:01:08;101897.75;;;15.41;100.00
39265;BME280;42646;51.910;7.724;2022-10-18T03:03:36;101888.84;;;15.41;100.00
39265;BME280;42646;51.910;7.724;2022-10-18T03:06:05;101895.38;;;15.38;100.00
39265;BME280;42646;51.910;7.724;2022-10-18T03:08:33;101892.81;;;15.37;100.00
39265;BME280;42646;51.910;7.724;2022-10-18T03:11:02;101896.50;;;15.36;100.00
39265;BME280;42646;51.910;7.724;2022-10-18T03:13:29;101903.66;;;15.35;100.00
39265;BME280;42646;51.910;7.724;2022-10-18T03:15:59;101894.78;;;15.35;100.00
39265;BME280;42646;51.910;7.724;2022-10-18T03:18:27;101898.47;;;15.34;100.00
39265;BME280;42646;51.910;7.724;2022-10-18T03:20:54;101902.81;;;15.35;100.00
39265;BME280;42646;51.910;7.724;2022-10-18T03:23:23;101897.59;;;15.33;100.00
39265;BME280;42646;51.910;7.724;2022-10-18T03:25:51;101896.75;;;15.33;100.00
39265;BME280;42646;51.910;7.724;2022-10-18T03:28:19;101900.28;;;15.33;100.00
39265;BME280;42646;51.910;7.724;2022-10-18T03:30:47;101901.13;;;15.34;100.00
39265;BME280;42646;51.910;7.724;2022-10-18T03:33:15;101903.81;;;15.34;100.00
39265;BME280;42646;51.910;7.724;2022-10-18T03:35:42;101900.28;;;15.33;100.00
39265;BME280;42646;51.910;7.724;2022-10-18T03:38:10;101900.28;;;15.33;100.00
39265;BME280;42646;51.910;7.724;2022-10-18T03:40:39;101898.47;;;15.34;100.00
39265;BME280;42646;51.910;7.724;2022-10-18T03:43:07;101904.66;;;15.34;100.00
39265;BME280;42646;51.910;7.724;2022-10-18T03:45:34;101901.13;;;15.34;100.00
39265;BME280;42646;51.910;7.724;2022-10-18T03:48:02;101898.31;;;15.35;100.00
39265;BME280;42646;51.910;7.724;2022-10-18T03:50:30;101894.78;;;15.35;100.00
39265;BME280;42646;51.910;7.724;2022-10-18T03:52:58;101891.25;;;15.34;100.00
39265;BME280;42646;51.910;7.724;2022-10-18T03:55:25;101890.25;;;15.35;100.00
39265;BME280;42646;51.910;7.724;2022-10-18T03:57:54;101885.78;;;15.36;100.00
39265;BME280;42646;51.910;7.724;2022-10-18T04:00:22;101890.16;;;15.37;100.00
39265;BME280;42646;51.910;7.724;2022-10-18T04:02:49;101896.34;;;15.37;100.00
39265;BME280;42646;51.910;7.724;2022-10-18T04:05:21;101894.66;;;15.36;100.00
39265;BME280;42646;51.910;7.724;2022-10-18T04:07:52;101890.16;;;15.37;100.00
39265;BME280;42646;51.910;7.724;2022-10-18T04:10:19;101886.63;;;15.36;100.00
39265;BME280;42646;51.910;7.724;2022-10-18T04:12:47;101880.41;;;15.36;100.00
39265;BME280;42646;51.910;7.724;2022-10-18T04:15:16;101876.84;;;15.35;100.00
39265;BME280;42646;51.910;7.724;2022-10-18T04:17:44;101881.38;;;15.35;100.00
39265;BME280;42646;51.910;7.724;2022-10-18T04:20:12;101871.78;;;15.32;100.00
39265;BME280;42646;51.910;7.724;2022-10-18T04:22:39;101874.63;;;15.31;100.00
39265;BME280;42646;51.910;7.724;2022-10-18T04:25:07;101869.53;;;15.28;100.00
39265;BME280;42646;51.910;7.724;2022-10-18T04:27:35;101873.19;;;15.27;100.00
39265;BME280;42646;51.910;7.724;2022-10-18T04:30:03;101875.16;;;15.25;100.00
39265;BME280;42646;51.910;7.724;2022-10-18T04:32:33;101879.81;;;15.22;100.00
39265;BME280;42646;51.910;7.724;2022-10-18T04:35:00;101886.16;;;15.21;100.00
39265;BME280;42646;51.910;7.724;2022-10-18T04:37:28;101892.50;;;15.20;100.00
39265;BME280;42646;51.910;7.724;2022-10-18T04:39:56;101898.88;;;15.19;100.00
39265;BME280;42646;51.910;7.724;2022-10-18T04:42:24;101902.66;;;15.17;100.00
39265;BME280;42646;51.910;7.724;2022-10-18T04:44:52;101901.81;;;15.16;100.00
39265;BME280;42646;51.910;7.724;2022-10-18T04:47:20;101900.97;;;15.16;100.00
39265;BME280;42646;51.910;7.724;2022-10-18T04:49:49;101902.78;;;15.15;100.00
39265;BME280;42646;51.910;7.724;2022-10-18T04:52:16;101899.28;;;15.15;100.00
39265;BME280;42646;51.910;7.724;2022-10-18T04:54:44;101901.09;;;15.14;100.00
39265;BME280;42646;51.910;7.724;2022-10-18T04:57:12;101908.16;;;15.15;100.00
39265;BME280;42646;51.910;7.724;2022-10-18T04:59:39;101904.63;;;15.15;100.00
39265;BME280;42646;51.910;7.724;2022-10-18T05:02:07;101901.09;;;15.14;100.00
39265;BME280;42646;51.910;7.724;2022-10-18T05:04:34;101902.78;;;15.15;100.00
39265;BME280;42646;51.910;7.724;2022-10-18T05:07:03;101896.75;;;15.13;100.00
39265;BME280;42646;51.910;7.724;2022-10-18T05:09:32;101902.09;;;15.13;100.00
39265;BME280;42646;51.910;7.724;2022-10-18T05:11:59;101894.75;;;15.15;100.00
39265;BME280;42646;51.910;7.724;2022-10-18T05:14:27;101898.44;;;15.14;100.00
39265;BME280;42646;51.910;7.724;2022-10-18T05:16:54;101903.09;;;15.12;100.00
39265;BME280;42646;51.910;7.724;2022-10-18T05:19:22;101896.84;;;15.12;100.00
39265;BME280;42646;51.910;7.724;2022-10-18T05:21:50;101898.84;;;15.10;100.00
39265;BME280;42646;51.910;7.724;2022-10-18T05:24:19;101911.25;;;15.11;100.00
39265;BME280;42646;51.910;7.724;2022-10-18T05:26:50;101901.38;;;15.11;100.00
39265;BME280;42646;51.910;7.724;2022-10-18T05:29:18;101898.69;;;15.11;100.00
39265;BME280;42646;51.910;7.724;2022-10-18T05:31:47;101902.34;;;15.10;100.00
39265;BME280;42646;51.910;7.724;2022-10-18T05:34:14;101898.69;;;15.11;100.00
39265;BME280;42646;51.910;7.724;2022-10-18T05:36:42;101904.03;;;15.11;100.00
39265;BME280;42646;51.910;7.724;2022-10-18T05:39:10;101898.69;;;15.11;100.00
39265;BME280;42646;51.910;7.724;2022-10-18T05:41:39;101897.00;;;15.10;100.00
39265;BME280;42646;51.910;7.724;2022-10-18T05:44:06;101901.50;;;15.10;100.00
39265;BME280;42646;51.910;7.724;2022-10-18T05:46:34;101900.66;;;15.09;100.00
39265;BME280;42646;51.910;7.724;2022-10-18T05:49:02;101897.13;;;15.09;100.00
39265;BME280;42646;51.910;7.724;2022-10-18T05:51:29;101898.97;;;15.08;100.00
39265;BME280;42646;51.910;7.724;2022-10-18T05:53:57;101890.78;;;15.10;100.00
39265;BME280;42646;51.910;7.724;2022-10-18T05:56:26;101895.31;;;15.09;100.00
39265;BME280;42646;51.910;7.724;2022-10-18T05:58:55;101895.31;;;15.09;100.00
39265;BME280;42646;51.910;7.724;2022-10-18T06:01:23;101900.66;;;15.09;100.00
39265;BME280;42646;51.910;7.724;2022-10-18T06:03:51;101907.03;;;15.08;100.00
39265;BME280;42646;51.910;7.724;2022-10-18T06:06:18;101913.22;;;15.09;100.00
39265;BME280;42646;51.910;7.724;2022-10-18T06:08:48;101919.56;;;15.08;100.00
39265;BME280;42646;51.910;7.724;2022-10-18T06:11:17;101918.72;;;15.07;100.00
39265;BME280;42646;51.910;7.724;2022-10-18T06:13:47;101917.75;;;15.08;100.00
39265;BME280;42646;51.910;7.724;2022-10-18T06:16:18;101921.41;;;15.07;100.00
39265;BME280;42646;51.910;7.724;2022-10-18T06:18:47;101925.78;;;15.08;100.00
39265;BME280;42646;51.910;7.724;2022-10-18T06:21:15;101927.47;;;15.09;100.00
39265;BME280;42646;51.910;7.724;2022-10-18T06:23:43;101933.69;;;15.10;100.00
39265;BME280;42646;51.910;7.724;2022-10-18T06:26:14;101929.91;;;15.12;100.00
39265;BME280;42646;51.910;7.724;2022-10-18T06:28:42;101933.53;;;15.11;100.00
39265;BME280;42646;51.910;7.724;2022-10-18T06:31:11;101935.25;;;15.12;100.00
39265;BME280;42646;51.910;7.724;2022-10-18T06:33:40;101931.59;;;15.13;100.00
39265;BME280;42646;51.910;7.724;2022-10-18T06:36:10;101929.59;;;15.15;100.00
39265;BME280;42646;51.910;7.724;2022-10-18T06:38:39;101937.50;;;15.17;100.00
39265;BME280;42646;51.910;7.724;2022-10-18T06:41:07;101934.81;;;15.17;100.00
39265;BME280;42646;51.910;7.724;2022-10-18T06:43:35;101932.72;;;15.20;100.00
39265;BME280;42646;51.910;7.724;2022-10-18T06:46:04;101943.31;;;15.22;100.00
39265;BME280;42646;51.910;7.724;2022-10-18T06:48:33;101939.63;;;15.23;100.00
39265;BME280;42646;51.910;7.724;2022-10-18T06:51:04;101943.16;;;15.23;100.00
39265;BME280;42646;51.910;7.724;2022-10-18T06:53:33;101949.41;;;15.24;100.00
39265;BME280;42646;51.910;7.724;2022-10-18T06:56:10;101958.28;;;15.25;100.00
39265;BME280;42646;51.910;7.724;2022-10-18T06:58:39;101959.97;;;15.26;100.00
39265;BME280;42646;51.910;7.724;2022-10-18T07:01:08;101960.69;;;15.28;100.00
39265;BME280;42646;51.910;7.724;2022-10-18T07:03:36;101965.03;;;15.29;100.00
39265;BME280;42646;51.910;7.724;2022-10-18T07:06:06;101956.00;;;15.30;100.00
39265;BME280;42646;51.910;7.724;2022-10-18T07:08:35;101966.47;;;15.33;100.00
39265;BME280;42646;51.910;7.724;2022-10-18T07:11:03;101962.81;;;15.34;100.00
39265;BME280;42646;51.910;7.724;2022-10-18T07:13:31;101957.31;;;15.35;100.00
39265;BME280;42646;51.910;7.724;2022-10-18T07:16:01;101967.91;;;15.37;100.00
39265;BME280;42646;51.910;7.724;2022-10-18T07:18:28;101975.81;;;15.38;100.00
39265;BME280;42646;51.910;7.724;2022-10-18T07:20:56;101975.66;;;15.40;100.00
39265;BME280;42646;51.910;7.724;2022-10-18T07:23:25;101973.72;;;15.42;100.00
39265;BME280;42646;51.910;7.724;2022-10-18T07:25:52;101980.78;;;15.43;100.00
39265;BME280;42646;51.910;7.724;2022-10-18T07:28:20;101984.44;;;15.42;100.00
39265;BME280;42646;51.910;7.724;2022-10-18T07:30:48;101989.66;;;15.43;100.00
39265;BME280;42646;51.910;7.724;2022-10-18T07:33:15;101995.88;;;15.44;100.00
39265;BME280;42646;51.910;7.724;2022-10-18T07:35:43;102001.22;;;15.44;100.00
39265;BME280;42646;51.910;7.724;2022-10-18T07:38:10;102001.94;;;15.46;100.00
39265;BME280;42646;51.910;7.724;2022-10-18T07:40:39;101998.25;;;15.47;100.00
39265;BME280;42646;51.910;7.724;2022-10-18T07:43:07;102002.66;;;15.48;100.00
39265;BME280;42646;51.910;7.724;2022-10-18T07:45:37;102016.78;;;15.50;100.00
39265;BME280;42646;51.910;7.724;2022-10-18T07:48:05;102024.69;;;15.52;100.00
39265;BME280;42646;51.910;7.724;2022-10-18T07:50:33;102032.56;;;15.53;100.00
39265;BME280;42646;51.910;7.724;2022-10-18T07:53:01;102034.16;;;15.56;100.00
39265;BME280;42646;51.910;7.724;2022-10-18T07:55:28;102034.00;;;15.57;100.00
39265;BME280;42646;51.910;7.724;2022-10-18T07:57:58;102035.69;;;15.58;100.00
39265;BME280;42646;51.910;7.724;2022-10-18T08:00:26;102033.03;;;15.58;100.00
39265;BME280;42646;51.910;7.724;2022-10-18T08:02:54;102028.50;;;15.59;100.00
39265;BME280;42646;51.910;7.724;2022-10-18T08:05:22;102037.28;;;15.61;100.00
39265;BME280;42646;51.910;7.724;2022-10-18T08:07:50;102036.28;;;15.62;100.00
39265;BME280;42646;51.910;7.724;2022-10-18T08:10:18;102039.84;;;15.62;100.00
39265;BME280;42646;51.910;7.724;2022-10-18T08:12:46;102039.72;;;15.64;100.00
39265;BME280;42646;51.910;7.724;2022-10-18T08:15:15;102024.47;;;15.64;100.00
39265;BME280;42646;51.910;7.724;2022-10-18T08:17:43;102020.94;;;15.64;100.00
39265;BME280;42646;51.910;7.724;2022-10-18T08:20:10;102032.38;;;15.66;100.00
39265;BME280;42646;51.910;7.724;2022-10-18T08:22:56;102042.13;;;15.67;100.00
39265;BME280;42646;51.910;7.724;2022-10-18T08:25:26;102040.16;;;15.69;100.00
39265;BME280;42646;51.910;7.724;2022-10-18T08:27:54;102048.91;;;15.71;100.00
39265;BME280;42646;51.910;7.724;2022-10-18T08:30:23;102053.56;;;15.69;100.00
39265;BME280;42646;51.910;7.724;2022-10-18T08:32:51;102055.25;;;15.70;100.00
39265;BME280;42646;51.910;7.724;2022-10-18T08:35:18;102062.31;;;15.71;100.00
39265;BME280;42646;51.910;7.724;2022-10-18T08:37:46;102056.84;;;15.72;100.00
39265;BME280;42646;51.910;7.724;2022-10-18T08:40:14;102061.91;;;15.75;100.00
39265;BME280;42646;51.910;7.724;2022-10-18T08:43:02;102064.44;;;15.77;100.00
39265;BME280;42646;51.910;7.724;2022-10-18T08:45:37;102067.28;;;15.75;100.00
39265;BME280;42646;51.910;7.724;2022-10-18T08:48:17;102061.66;;;15.79;100.00
39265;BME280;42646;51.910;7.724;2022-10-18T08:50:48;102058.22;;;15.76;100.00
39265;BME280;42646;51.910;7.724;2022-10-18T08:53:19;102062.63;;;15.78;100.00
39265;BME280;42646;51.910;7.724;2022-10-18T08:55:54;102066.03;;;15.80;100.00
39265;BME280;42646;51.910;7.724;2022-10-18T08:58:25;102064.03;;;15.82;100.00
39265;BME280;42646;51.910;7.724;2022-10-18T09:01:00;102062.34;;;15.81;100.00
39265;BME280;42646;51.910;7.724;2022-10-18T09:03:43;102071.09;;;15.83;100.00
39265;BME280;42646;51.910;7.724;2022-10-18T09:06:18;102075.50;;;15.84;100.00
39265;BME280;42646;51.910;7.724;2022-10-18T09:08:56;102074.50;;;15.85;100.00
39265;BME280;42646;51.910;7.724;2022-10-18T09:11:42;102075.91;;;15.89;100.00
39265;BME280;42646;51.910;7.724;2022-10-18T09:17:08;102069.88;;;15.96;100.00
39265;BME280;42646;51.910;7.724;2022-10-18T09:19:52;102081.31;;;15.98;100.00
39265;BME280;42646;51.910;7.724;2022-10-18T09:22:38;102079.22;;;16.02;100.00
39265;BME280;42646;51.910;7.724;2022-10-18T09:25:16;102080.91;;;16.03;100.00
39265;BME280;42646;51.910;7.724;2022-10-18T09:27:51;102087.81;;;16.06;100.00
39265;BME280;42646;51.910;7.724;2022-10-18T09:30:28;102088.53;;;16.08;100.00
39265;BME280;42646;51.910;7.724;2022-10-18T09:33:08;102084.03;;;16.08;100.00
39265;BME280;42646;51.910;7.724;2022-10-18T09:35:42;102088.53;;;16.08;100.00
39265;BME280;42646;51.910;7.724;2022-10-18T09:38:17;102089.25;;;16.10;100.00
39265;BME280;42646;51.910;7.724;2022-10-18T09:40:52;102093.47;;;16.12;100.00
39265;BME280;42646;51.910;7.724;2022-10-18T09:43:23;102087.00;;;16.15;100.00
39265;BME280;42646;51.910;7.724;2022-10-18T09:45:53;102091.22;;;16.17;100.00
39265;BME280;42646;51.910;7.724;2022-10-18T09:48:27;102093.06;;;16.17;100.00
39265;BME280;42646;51.910;7.724;2022-10-18T09:50:57;102091.81;;;16.21;100.00
39265;BME280;42646;51.910;7.724;2022-10-18T09:53:33;102093.22;;;16.25;100.00
39265;BME280;42646;51.910;7.724;2022-10-18T09:56:05;102103.97;;;16.25;100.00
39265;BME280;42646;51.910;7.724;2022-10-18T09:58:38;102112.44;;;16.30;100.00
39265;BME280;42646;51.910;7.724;2022-10-18T10:01:07;102104.81;;;16.25;100.00
39265;BME280;42646;51.910;7.724;2022-10-18T10:03:36;102104.81;;;16.25;100.00
39265;BME280;42646;51.910;7.724;2022-10-18T10:06:15;102108.19;;;16.27;100.00
39265;BME280;42646;51.910;7.724;2022-10-18T10:08:47;102114.56;;;16.26;100.00
39265;BME280;42646;51.910;7.724;2022-10-18T10:11:28;102107.06;;;16.30;100.00
39265;BME280;42646;51.910;7.724;2022-10-18T10:13:57;102110.03;;;16.27;100.00
39265;BME280;42646;51.910;7.724;2022-10-18T10:16:41;102121.91;;;16.24;100.00
39265;BME280;42646;51.910;7.724;2022-10-18T10:19:21;102114.28;;;16.20;100.00
39265;BME280;42646;51.910;7.724;2022-10-18T10:21:52;102110.75;;;16.19;100.00
39265;BME280;42646;51.910;7.724;2022-10-18T10:24:24;102117.22;;;16.17;100.00
39265;BME280;42646;51.910;7.724;2022-10-18T10:27:05;102121.59;;;16.18;100.00
39265;BME280;42646;51.910;7.724;2022-10-18T10:29:47;102125.44;;;16.15;100.00
39265;BME280;42646;51.910;7.724;2022-10-18T10:32:18;102121.75;;;16.16;100.00
39265;BME280;42646;51.910;7.724;2022-10-18T10:34:48;102115.13;;;16.20;100.00
39265;BME280;42646;51.910;7.724;2022-10-18T10:37:25;102113.84;;;16.24;100.00
39265;BME280;42646;51.910;7.724;2022-10-18T10:40:18;102128.53;;;16.30;100.00
39265;BME280;42646;51.910;7.724;2022-10-18T10:42:56;102122.75;;;16.35;100.00
39265;BME280;42646;51.910;7.724;2022-10-18T10:45:56;102109.06;;;16.38;100.00
39265;BME280;42646;51.910;7.724;2022-10-18T10:48:26;102119.38;;;16.33;100.00
39265;BME280;42646;51.910;7.724;2022-10-18T10:51:03;102119.63;;;16.29;100.00
39265;BME280;42646;51.910;7.724;2022-10-18T10:53:35;102104.25;;;16.32;100.00
39265;BME280;42646;51.910;7.724;2022-10-18T10:56:06;102103.25;;;16.33;100.00
39265;BME280;42646;51.910;7.724;2022-10-18T10:58:41;102115.53;;;16.35;100.00
39265;BME280;42646;51.910;7.724;2022-10-18T11:01:19;102110.06;;;16.37;100.00
39265;BME280;42646;51.910;7.724;2022-10-18T11:03:48;102100.84;;;16.39;100.00
39265;BME280;42646;51.910;7.724;2022-10-18T11:06:38;102104.81;;;16.45;100.00
39265;BME280;42646;51.910;7.724;2022-10-18T11:09:18;102120.94;;;16.45;100.00
39265;BME280;42646;51.910;7.724;2022-10-18T11:11:58;102114.88;;;16.43;100.00
39265;BME280;42646;51.910;7.724;2022-10-18T11:14:32;102108.09;;;16.48;100.00
39265;BME280;42646;51.910;7.724;2022-10-18T11:17:07;102099.47;;;16.54;100.00
39265;BME280;42646;51.910;7.724;2022-10-18T11:20:00;102109.22;;;16.55;100.00
39265;BME280;42646;51.910;7.724;2022-10-18T11:22:35;102119.50;;;16.60;100.00
39265;BME280;42646;51.910;7.724;2022-10-18T11:25:11;102119.50;;;16.60;100.00
39265;BME280;42646;51.910;7.724;2022-10-18T11:27:41;102114.56;;;16.65;100.00
39265;BME280;42646;51.910;7.724;2022-10-18T11:30:31;102113.88;;;16.63;100.00
39265;BME280;42646;51.910;7.724;2022-10-18T11:33:13;102108.63;;;16.62;100.00
39265;BME280;42646;51.910;7.724;2022-10-18T11:35:50;102095.91;;;16.64;100.00
39265;BME280;42646;51.910;7.724;2022-10-18T11:38:33;102103.25;;;16.62;100.00
39265;BME280;42646;51.910;7.724;2022-10-18T11:41:18;102109.19;;;16.65;100.00
39265;BME280;42646;51.910;7.724;2022-10-18T11:43:51;102106.66;;;16.64;100.00
39265;BME280;42646;51.910;7.724;2022-10-18T11:46:43;102099.44;;;16.64;100.00
39265;BME280;42646;51.910;7.724;2022-10-18T11:49:24;102098.44;;;16.65;100.00
39265;BME280;42646;51.910;7.724;2022-10-18T11:52:01;102106.22;;;16.68;100.00
39265;BME280;42646;51.910;7.724;2022-10-18T11:54:55;102110.22;;;16.74;100.00
39265;BME280;42646;51.910;7.724;2022-10-18T11:57:33;102109.38;;;16.73;98.95
39265;BME280;42646;51.910;7.724;2022-10-18T12:00:15;102105.69;;;16.74;97.67
39265;BME280;42646;51.910;7.724;2022-10-18T12:03:05;102107.09;;;16.78;97.93
39265;BME280;42646;51.910;7.724;2022-10-18T12:05:40;102101.44;;;16.81;98.41
39265;BME280;42646;51.910;7.724;2022-10-18T12:08:12;102102.69;;;16.87;98.45
39265;BME280;42646;51.910;7.724;2022-10-18T12:10:48;102101.97;;;16.95;96.45
39265;BME280;42646;51.910;7.724;2022-10-18T12:13:34;102095.63;;;16.96;96.08
39265;BME280;42646;51.910;7.724;2022-10-18T12:16:05;102091.94;;;16.97;96.33
39265;BME280;42646;51.910;7.724;2022-10-18T12:18:35;102088.09;;;16.99;97.26
39265;BME280;42646;51.910;7.724;2022-10-18T12:21:11;102084.72;;;16.97;97.34
39265;BME280;42646;51.910;7.724;2022-10-18T12:23:44;102089.09;;;16.98;96.40
39265;BME280;42646;51.910;7.724;2022-10-18T12:26:15;102097.56;;;17.03;94.82
39265;BME280;42646;51.910;7.724;2022-10-18T12:28:50;102089.34;;;17.05;93.91
39265;BME280;42646;51.910;7.724;2022-10-18T12:31:25;102097.28;;;17.06;92.30
39265;BME280;42646;51.910;7.724;2022-10-18T12:33:57;102094.59;;;17.06;92.43
39265;BME280;42646;51.910;7.724;2022-10-18T12:36:41;102085.50;;;17.07;93.68
39265;BME280;42646;51.910;7.724;2022-10-18T12:39:16;102084.66;;;17.07;94.23
39265;BME280;42646;51.910;7.724;2022-10-18T12:42:16;102090.91;;;17.07;93.41
39265;BME280;42646;51.910;7.724;2022-10-18T12:44:45;102090.03;;;17.07;90.79
39265;BME280;42646;51.910;7.724;2022-10-18T12:47:20;102083.81;;;17.06;91.24
39265;BME280;42646;51.910;7.724;2022-10-18T12:49:57;102095.31;;;17.08;91.07
39265;BME280;42646;51.910;7.724;2022-10-18T12:52:27;102090.63;;;17.11;87.68
39265;BME280;42646;51.910;7.724;2022-10-18T12:55:06;102096.28;;;17.07;87.15
39265;BME280;42646;51.910;7.724;2022-10-18T12:58:04;102094.59;;;17.06;85.24
39265;BME280;42646;51.910;7.724;2022-10-18T13:01:06;102100.97;;;17.05;81.19
39265;BME280;42646;51.910;7.724;2022-10-18T13:03:49;102095.31;;;16.99;80.03
39265;BME280;42646;51.910;7.724;2022-10-18T13:06:18;102099.69;;;17.00;80.26
39265;BME280;42646;51.910;7.724;2022-10-18T13:08:46;102108.50;;;17.02;79.20
39265;BME280;42646;51.910;7.724;2022-10-18T13:11:31;102090.78;;;16.99;78.93